sensor_id;sensor_type;location;lat;lon;timestamp;temperature;humidity
23359;DHT22;11851;50.796;4.372;2022-07-01T00:01:28;15.60;99.90
23359;DHT22;11851;50.796;4.372;2022-07-01T00:03:54;15.60;99.90
23359;DHT22;11851;50.796;4.372;2022-07-01T00:06:20;15.60;99.90
23359;DHT22;11851;50.796;4.372;2022-07-01T00:08:46;15.50;99.90
23359;DHT22;11851;50.796;4.372;2022-07-01T00:11:13;15.60;99.90
23359;DHT22;11851;50.796;4.372;2022-07-01T00:13:39;15.60;99.90
23359;DHT22;11851;50.796;4.372;2022-07-01T00:16:05;15.60;99.90
23359;DHT22;11851;50.796;4.372;2022-07-01T00:18:30;15.70;99.90
23359;DHT22;11851;50.796;4.372;2022-07-01T00:20:56;15.70;99.90
23359;DHT22;11851;50.796;4.372;2022-07-01T00:23:22;15.70;99.90
23359;DHT22;11851;50.796;4.372;2022-07-01T00:25:48;15.70;99.90
23359;DHT22;11851;50.796;4.372;2022-07-01T00:28:13;15.70;99.90
23359;DHT22;11851;50.796;4.372;2022-07-01T00:30:39;15.80;99.90
23359;DHT22;11851;50.796;4.372;2022-07-01T00:33:05;15.80;99.90
23359;DHT22;11851;50.796;4.372;2022-07-01T00:35:30;15.80;99.90
23359;DHT22;11851;50.796;4.372;2022-07-01T00:37:56;15.70;99.90
23359;DHT22;11851;50.796;4.372;2022-07-01T00:40:25;15.70;99.90
23359;DHT22;11851;50.796;4.372;2022-07-01T00:42:51;15.70;99.90
23359;DHT22;11851;50.796;4.372;2022-07-01T00:45:16;15.70;99.90
23359;DHT22;11851;50.796;4.372;2022-07-01T00:47:43;15.60;99.90
23359;DHT22;11851;50.796;4.372;2022-07-01T00:50:14;15.60;99.90
23359;DHT22;11851;50.796;4.372;2022-07-01T00:52:41;15.60;99.90
23359;DHT22;11851;50.796;4.372;2022-07-01T00:55:09;15.60;99.90
23359;DHT22;11851;50.796;4.372;2022-07-01T00:57:37;15.60;99.90
23359;DHT22;11851;50.796;4.372;2022-07-01T01:02:35;15.60;99.90
23359;DHT22;11851;50.796;4.372;2022-07-01T01:05:06;15.60;99.90
23359;DHT22;11851;50.796;4.372;2022-07-01T01:07:33;15.60;99.90
23359;DHT22;11851;50.796;4.372;2022-07-01T01:10:02;15.60;99.90
23359;DHT22;11851;50.796;4.372;2022-07-01T01:12:28;15.50;99.90
23359;DHT22;11851;50.796;4.372;2022-07-01T01:14:55;15.50;99.90
23359;DHT22;11851;50.796;4.372;2022-07-01T01:17:21;15.50;99.90
23359;DHT22;11851;50.796;4.372;2022-07-01T01:19:48;15.40;99.90
23359;DHT22;11851;50.796;4.372;2022-07-01T01:22:15;15.50;99.90
23359;DHT22;11851;50.796;4.372;2022-07-01T01:24:43;15.40;99.90
23359;DHT22;11851;50.796;4.372;2022-07-01T01:27:09;15.40;99.90
23359;DHT22;11851;50.796;4.372;2022-07-01T01:29:36;15.40;99.90
23359;DHT22;11851;50.796;4.372;2022-07-01T01:32:03;15.40;99.90
23359;DHT22;11851;50.796;4.372;2022-07-01T01:34:29;15.40;99.90
23359;DHT22;11851;50.796;4.372;2022-07-01T01:36:55;15.40;99.90
23359;DHT22;11851;50.796;4.372;2022-07-01T01:39:21;15.40;99.90
23359;DHT22;11851;50.796;4.372;2022-07-01T01:41:46;15.40;99.90
23359;DHT22;11851;50.796;4.372;2022-07-01T01:44:12;15.50;99.90
23359;DHT22;11851;50.796;4.372;2022-07-01T01:46:38;15.50;99.90
23359;DHT22;11851;50.796;4.372;2022-07-01T01:49:05;15.50;99.90
23359;DHT22;11851;50.796;4.372;2022-07-01T01:51:31;15.60;99.90
23359;DHT22;11851;50.796;4.372;2022-07-01T01:53:57;15.60;99.90
23359;DHT22;11851;50.796;4.372;2022-07-01T01:56:23;15.60;99.90
23359;DHT22;11851;50.796;4.372;2022-07-01T01:58:49;15.60;99.90
23359;DHT22;11851;50.796;4.372;2022-07-01T02:01:16;15.70;99.90
23359;DHT22;11851;50.796;4.372;2022-07-01T02:03:43;15.70;99.90
23359;DHT22;11851;50.796;4.372;2022-07-01T02:06:11;15.70;99.90
23359;DHT22;11851;50.796;4.372;2022-07-01T02:08:37;15.70;99.90
23359;DHT22;11851;50.796;4.372;2022-07-01T02:11:04;15.70;99.90
23359;DHT22;11851;50.796;4.372;2022-07-01T02:13:30;15.70;99.90
23359;DHT22;11851;50.796;4.372;2022-07-01T02:15:55;15.70;99.90
23359;DHT22;11851;50.796;4.372;2022-07-01T02:18:22;15.70;99.90
23359;DHT22;11851;50.796;4.372;2022-07-01T02:20:48;15.70;99.90
23359;DHT22;11851;50.796;4.372;2022-07-01T02:23:14;15.60;99.90
23359;DHT22;11851;50.796;4.372;2022-07-01T02:25:40;15.60;99.90
23359;DHT22;11851;50.796;4.372;2022-07-01T02:28:06;15.60;99.90
23359;DHT22;11851;50.796;4.372;2022-07-01T02:30:33;15.50;99.90
23359;DHT22;11851;50.796;4.372;2022-07-01T02:33:04;15.50;99.90
23359;DHT22;11851;50.796;4.372;2022-07-01T02:35:31;15.50;99.90
23359;DHT22;11851;50.796;4.372;2022-07-01T02:37:57;15.40;99.90
23359;DHT22;11851;50.796;4.372;2022-07-01T02:40:22;15.40;99.90
23359;DHT22;11851;50.796;4.372;2022-07-01T02:42:48;15.40;99.90
23359;DHT22;11851;50.796;4.372;2022-07-01T02:45:14;15.40;99.90
23359;DHT22;11851;50.796;4.372;2022-07-01T02:47:41;15.30;99.90
23359;DHT22;11851;50.796;4.372;2022-07-01T02:50:09;15.30;99.90
23359;DHT22;11851;50.796;4.372;2022-07-01T02:52:36;15.30;99.90
23359;DHT22;11851;50.796;4.372;2022-07-01T02:55:07;15.30;99.90
23359;DHT22;11851;50.796;4.372;2022-07-01T02:57:33;15.30;99.90
23359;DHT22;11851;50.796;4.372;2022-07-01T02:59:59;15.20;99.90
23359;DHT22;11851;50.796;4.372;2022-07-01T03:02:26;15.20;99.90
23359;DHT22;11851;50.796;4.372;2022-07-01T03:04:52;15.20;99.90
23359;DHT22;11851;50.796;4.372;2022-07-01T03:07:19;15.20;99.90
23359;DHT22;11851;50.796;4.372;2022-07-01T03:09:45;15.10;99.90
23359;DHT22;11851;50.796;4.372;2022-07-01T03:12:12;15.10;99.90
23359;DHT22;11851;50.796;4.372;2022-07-01T03:15:09;15.10;99.90
23359;DHT22;11851;50.796;4.372;2022-07-01T03:17:38;15.10;99.90
23359;DHT22;11851;50.796;4.372;2022-07-01T03:20:05;15.10;99.90
23359;DHT22;11851;50.796;4.372;2022-07-01T03:22:32;15.00;99.90
23359;DHT22;11851;50.796;4.372;2022-07-01T03:24:58;15.00;99.90
23359;DHT22;11851;50.796;4.372;2022-07-01T03:27:24;15.00;99.90
23359;DHT22;11851;50.796;4.372;2022-07-01T03:29:51;15.00;99.90
23359;DHT22;11851;50.796;4.372;2022-07-01T03:32:16;15.10;99.90
23359;DHT22;11851;50.796;4.372;2022-07-01T03:34:45;15.00;99.90
23359;DHT22;11851;50.796;4.372;2022-07-01T03:37:13;15.10;99.90
23359;DHT22;11851;50.796;4.372;2022-07-01T03:39:39;15.10;99.90
23359;DHT22;11851;50.796;4.372;2022-07-01T03:42:06;15.20;99.90
23359;DHT22;11851;50.796;4.372;2022-07-01T03:44:33;15.20;99.90
23359;DHT22;11851;50.796;4.372;2022-07-01T03:46:59;15.20;99.90
23359;DHT22;11851;50.796;4.372;2022-07-01T03:49:25;15.30;99.90
23359;DHT22;11851;50.796;4.372;2022-07-01T03:51:51;15.30;99.90
23359;DHT22;11851;50.796;4.372;2022-07-01T03:54:17;15.30;99.90
23359;DHT22;11851;50.796;4.372;2022-07-01T03:57:02;15.30;99.90
23359;DHT22;11851;50.796;4.372;2022-07-01T03:59:31;15.30;99.90
23359;DHT22;11851;50.796;4.372;2022-07-01T04:01:57;15.30;99.90
23359;DHT22;11851;50.796;4.372;2022-07-01T04:04:24;15.20;99.90
23359;DHT22;11851;50.796;4.372;2022-07-01T04:06:51;15.20;99.90
23359;DHT22;11851;50.796;4.372;2022-07-01T04:09:18;15.20;99.90
23359;DHT22;11851;50.796;4.372;2022-07-01T04:11:46;15.20;99.90
23359;DHT22;11851;50.796;4.372;2022-07-01T04:14:12;15.20;99.90
23359;DHT22;11851;50.796;4.372;2022-07-01T04:16:39;15.20;99.90
23359;DHT22;11851;50.796;4.372;2022-07-01T04:19:05;15.20;99.90
23359;DHT22;11851;50.796;4.372;2022-07-01T04:21:31;15.20;99.90
23359;DHT22;11851;50.796;4.372;2022-07-01T04:24:15;15.20;99.90
23359;DHT22;11851;50.796;4.372;2022-07-01T04:26:42;15.10;99.90
23359;DHT22;11851;50.796;4.372;2022-07-01T04:29:08;15.10;99.90
23359;DHT22;11851;50.796;4.372;2022-07-01T04:31:34;15.10;99.90
23359;DHT22;11851;50.796;4.372;2022-07-01T04:34:00;15.10;99.90
23359;DHT22;11851;50.796;4.372;2022-07-01T04:36:26;15.00;99.90
23359;DHT22;11851;50.796;4.372;2022-07-01T04:38:51;15.00;99.90
23359;DHT22;11851;50.796;4.372;2022-07-01T04:41:17;15.10;99.90
23359;DHT22;11851;50.796;4.372;2022-07-01T04:44:01;15.10;99.90
23359;DHT22;11851;50.796;4.372;2022-07-01T04:46:27;15.10;99.90
23359;DHT22;11851;50.796;4.372;2022-07-01T04:48:53;15.10;99.90
23359;DHT22;11851;50.796;4.372;2022-07-01T04:51:19;15.10;99.90
23359;DHT22;11851;50.796;4.372;2022-07-01T04:53:45;15.10;99.90
23359;DHT22;11851;50.796;4.372;2022-07-01T04:56:11;15.10;99.90
23359;DHT22;11851;50.796;4.372;2022-07-01T04:58:37;15.10;99.90
23359;DHT22;11851;50.796;4.372;2022-07-01T05:01:02;15.10;99.90
23359;DHT22;11851;50.796;4.372;2022-07-01T05:03:28;15.20;99.90
23359;DHT22;11851;50.796;4.372;2022-07-01T05:05:54;15.20;99.90
23359;DHT22;11851;50.796;4.372;2022-07-01T05:08:19;15.20;99.90
23359;DHT22;11851;50.796;4.372;2022-07-01T05:10:45;15.30;99.90
23359;DHT22;11851;50.796;4.372;2022-07-01T05:13:11;15.40;99.90
23359;DHT22;11851;50.796;4.372;2022-07-01T05:15:36;15.40;99.90
23359;DHT22;11851;50.796;4.372;2022-07-01T05:18:02;15.40;99.90
23359;DHT22;11851;50.796;4.372;2022-07-01T05:20:46;15.40;99.90
23359;DHT22;11851;50.796;4.372;2022-07-01T05:23:30;15.40;99.90
23359;DHT22;11851;50.796;4.372;2022-07-01T05:25:56;15.40;99.90
23359;DHT22;11851;50.796;4.372;2022-07-01T05:28:21;15.40;99.90
23359;DHT22;11851;50.796;4.372;2022-07-01T05:30:47;15.40;99.90
23359;DHT22;11851;50.796;4.372;2022-07-01T05:33:12;15.40;99.90
23359;DHT22;11851;50.796;4.372;2022-07-01T05:35:38;15.50;99.90
23359;DHT22;11851;50.796;4.372;2022-07-01T05:38:04;15.50;99.90
23359;DHT22;11851;50.796;4.372;2022-07-01T05:40:29;15.60;99.90
23359;DHT22;11851;50.796;4.372;2022-07-01T05:42:55;15.70;99.90
23359;DHT22;11851;50.796;4.372;2022-07-01T05:45:20;15.70;99.90
23359;DHT22;11851;50.796;4.372;2022-07-01T05:47:46;15.80;99.90
23359;DHT22;11851;50.796;4.372;2022-07-01T05:50:12;15.80;99.90
23359;DHT22;11851;50.796;4.372;2022-07-01T05:52:37;15.90;99.90
23359;DHT22;11851;50.796;4.372;2022-07-01T05:55:03;15.90;99.90
23359;DHT22;11851;50.796;4.372;2022-07-01T05:57:29;15.90;99.90
23359;DHT22;11851;50.796;4.372;2022-07-01T05:59:55;15.80;99.90
23359;DHT22;11851;50.796;4.372;2022-07-01T06:02:20;15.90;99.90
23359;DHT22;11851;50.796;4.372;2022-07-01T06:04:46;15.90;99.90
23359;DHT22;11851;50.796;4.372;2022-07-01T06:07:11;16.00;99.90
23359;DHT22;11851;50.796;4.372;2022-07-01T06:09:37;16.10;99.90
23359;DHT22;11851;50.796;4.372;2022-07-01T06:12:04;16.10;99.90
23359;DHT22;11851;50.796;4.372;2022-07-01T06:14:30;16.10;99.90
23359;DHT22;11851;50.796;4.372;2022-07-01T06:16:56;16.10;99.90
23359;DHT22;11851;50.796;4.372;2022-07-01T06:19:22;16.10;99.90
23359;DHT22;11851;50.796;4.372;2022-07-01T06:21:47;16.10;99.90
23359;DHT22;11851;50.796;4.372;2022-07-01T06:24:13;16.20;99.90
23359;DHT22;11851;50.796;4.372;2022-07-01T06:26:39;16.20;99.90
23359;DHT22;11851;50.796;4.372;2022-07-01T06:29:05;16.30;99.90
23359;DHT22;11851;50.796;4.372;2022-07-01T06:31:30;16.30;99.90
23359;DHT22;11851;50.796;4.372;2022-07-01T06:33:59;16.30;99.90
23359;DHT22;11851;50.796;4.372;2022-07-01T06:36:25;16.40;99.90
23359;DHT22;11851;50.796;4.372;2022-07-01T06:38:51;16.40;99.90
23359;DHT22;11851;50.796;4.372;2022-07-01T06:41:16;16.40;99.90
23359;DHT22;11851;50.796;4.372;2022-07-01T06:44:01;16.40;99.90
23359;DHT22;11851;50.796;4.372;2022-07-01T06:46:28;16.40;99.90
23359;DHT22;11851;50.796;4.372;2022-07-01T06:48:55;16.50;99.90
23359;DHT22;11851;50.796;4.372;2022-07-01T06:51:21;16.50;99.90
23359;DHT22;11851;50.796;4.372;2022-07-01T06:53:47;16.50;99.90
23359;DHT22;11851;50.796;4.372;2022-07-01T06:56:13;16.50;99.90
23359;DHT22;11851;50.796;4.372;2022-07-01T06:58:40;16.60;99.90
23359;DHT22;11851;50.796;4.372;2022-07-01T07:01:06;16.60;99.90
23359;DHT22;11851;50.796;4.372;2022-07-01T07:03:32;16.60;99.90
23359;DHT22;11851;50.796;4.372;2022-07-01T07:05:58;16.70;99.90
23359;DHT22;11851;50.796;4.372;2022-07-01T07:08:29;16.70;99.90
23359;DHT22;11851;50.796;4.372;2022-07-01T07:10:55;16.70;99.90
23359;DHT22;11851;50.796;4.372;2022-07-01T07:13:21;16.80;99.90
23359;DHT22;11851;50.796;4.372;2022-07-01T07:15:47;16.90;99.90
23359;DHT22;11851;50.796;4.372;2022-07-01T07:18:13;17.00;99.90
23359;DHT22;11851;50.796;4.372;2022-07-01T07:20:39;17.10;99.90
23359;DHT22;11851;50.796;4.372;2022-07-01T07:23:05;17.10;99.90
23359;DHT22;11851;50.796;4.372;2022-07-01T07:25:30;17.30;99.90
23359;DHT22;11851;50.796;4.372;2022-07-01T07:27:56;17.30;99.90
23359;DHT22;11851;50.796;4.372;2022-07-01T07:30:22;17.40;99.90
23359;DHT22;11851;50.796;4.372;2022-07-01T07:32:48;17.50;99.90
23359;DHT22;11851;50.796;4.372;2022-07-01T07:35:14;17.60;99.90
23359;DHT22;11851;50.796;4.372;2022-07-01T07:37:40;17.80;99.90
23359;DHT22;11851;50.796;4.372;2022-07-01T07:40:07;17.80;99.90
23359;DHT22;11851;50.796;4.372;2022-07-01T07:42:36;17.80;99.90
23359;DHT22;11851;50.796;4.372;2022-07-01T07:45:03;17.90;99.90
23359;DHT22;11851;50.796;4.372;2022-07-01T07:47:29;18.00;99.90
23359;DHT22;11851;50.796;4.372;2022-07-01T07:49:54;18.10;99.90
23359;DHT22;11851;50.796;4.372;2022-07-01T07:52:20;18.20;99.90
23359;DHT22;11851;50.796;4.372;2022-07-01T07:54:45;18.30;99.90
23359;DHT22;11851;50.796;4.372;2022-07-01T07:57:11;18.40;99.90
23359;DHT22;11851;50.796;4.372;2022-07-01T07:59:37;18.50;99.90
23359;DHT22;11851;50.796;4.372;2022-07-01T08:02:03;18.40;99.90
23359;DHT22;11851;50.796;4.372;2022-07-01T08:04:29;18.60;99.90
23359;DHT22;11851;50.796;4.372;2022-07-01T08:06:54;18.60;99.90
23359;DHT22;11851;50.796;4.372;2022-07-01T08:09:20;18.50;99.90
23359;DHT22;11851;50.796;4.372;2022-07-01T08:11:46;18.60;99.90
23359;DHT22;11851;50.796;4.372;2022-07-01T08:14:12;18.70;99.90
23359;DHT22;11851;50.796;4.372;2022-07-01T08:16:38;18.70;99.90
23359;DHT22;11851;50.796;4.372;2022-07-01T08:19:03;18.70;99.90
23359;DHT22;11851;50.796;4.372;2022-07-01T08:21:29;18.70;99.90
23359;DHT22;11851;50.796;4.372;2022-07-01T08:23:55;18.60;99.90
23359;DHT22;11851;50.796;4.372;2022-07-01T08:26:21;18.70;99.90
23359;DHT22;11851;50.796;4.372;2022-07-01T08:28:47;18.90;99.90
23359;DHT22;11851;50.796;4.372;2022-07-01T08:31:12;19.00;99.90
23359;DHT22;11851;50.796;4.372;2022-07-01T08:33:38;19.10;99.90
23359;DHT22;11851;50.796;4.372;2022-07-01T08:36:05;19.20;99.90
23359;DHT22;11851;50.796;4.372;2022-07-01T08:38:31;19.30;99.90
23359;DHT22;11851;50.796;4.372;2022-07-01T08:40:57;19.30;99.90
23359;DHT22;11851;50.796;4.372;2022-07-01T08:43:22;19.50;99.90
23359;DHT22;11851;50.796;4.372;2022-07-01T08:45:51;19.60;99.90
23359;DHT22;11851;50.796;4.372;2022-07-01T08:48:17;19.80;99.90
23359;DHT22;11851;50.796;4.372;2022-07-01T08:50:43;19.80;99.90
23359;DHT22;11851;50.796;4.372;2022-07-01T08:53:10;19.80;99.90
23359;DHT22;11851;50.796;4.372;2022-07-01T08:55:36;19.60;99.90
23359;DHT22;11851;50.796;4.372;2022-07-01T08:58:22;19.40;99.90
23359;DHT22;11851;50.796;4.372;2022-07-01T09:00:48;19.30;99.90
23359;DHT22;11851;50.796;4.372;2022-07-01T09:03:14;19.20;99.90
23359;DHT22;11851;50.796;4.372;2022-07-01T09:05:49;19.30;99.90
23359;DHT22;11851;50.796;4.372;2022-07-01T09:08:15;19.20;99.90
23359;DHT22;11851;50.796;4.372;2022-07-01T09:10:41;19.20;99.90
23359;DHT22;11851;50.796;4.372;2022-07-01T09:13:08;19.20;99.90
23359;DHT22;11851;50.796;4.372;2022-07-01T09:15:35;19.20;99.90
23359;DHT22;11851;50.796;4.372;2022-07-01T09:18:15;19.00;99.90
23359;DHT22;11851;50.796;4.372;2022-07-01T09:20:44;19.00;99.90
23359;DHT22;11851;50.796;4.372;2022-07-01T09:23:12;19.10;99.90
23359;DHT22;11851;50.796;4.372;2022-07-01T09:25:44;18.90;99.90
23359;DHT22;11851;50.796;4.372;2022-07-01T09:28:11;18.80;99.90
23359;DHT22;11851;50.796;4.372;2022-07-01T09:30:38;18.60;99.90
23359;DHT22;11851;50.796;4.372;2022-07-01T09:33:24;18.60;99.90
23359;DHT22;11851;50.796;4.372;2022-07-01T09:35:51;18.50;99.90
23359;DHT22;11851;50.796;4.372;2022-07-01T09:38:22;18.70;99.90
23359;DHT22;11851;50.796;4.372;2022-07-01T09:43:32;18.70;99.90
23359;DHT22;11851;50.796;4.372;2022-07-01T09:46:06;18.80;99.90
23359;DHT22;11851;50.796;4.372;2022-07-01T09:50:59;19.20;99.90
23359;DHT22;11851;50.796;4.372;2022-07-01T09:53:24;19.40;99.90
23359;DHT22;11851;50.796;4.372;2022-07-01T09:55:50;19.50;99.90
23359;DHT22;11851;50.796;4.372;2022-07-01T09:58:16;19.60;99.90
23359;DHT22;11851;50.796;4.372;2022-07-01T10:00:43;19.70;99.90
23359;DHT22;11851;50.796;4.372;2022-07-01T10:03:09;19.70;99.90
23359;DHT22;11851;50.796;4.372;2022-07-01T10:05:48;19.60;99.90
23359;DHT22;11851;50.796;4.372;2022-07-01T10:08:30;19.50;99.90
23359;DHT22;11851;50.796;4.372;2022-07-01T10:13:27;19.50;99.90
23359;DHT22;11851;50.796;4.372;2022-07-01T10:15:54;19.40;99.90
23359;DHT22;11851;50.796;4.372;2022-07-01T10:18:22;19.40;99.90
23359;DHT22;11851;50.796;4.372;2022-07-01T10:20:49;19.20;99.90
23359;DHT22;11851;50.796;4.372;2022-07-01T10:23:15;19.10;99.90
23359;DHT22;11851;50.796;4.372;2022-07-01T10:25:49;19.10;99.90
23359;DHT22;11851;50.796;4.372;2022-07-01T10:30:52;19.20;99.90
23359;DHT22;11851;50.796;4.372;2022-07-01T10:41:58;19.90;99.90
23359;DHT22;11851;50.796;4.372;2022-07-01T10:44:25;20.20;99.90
23359;DHT22;11851;50.796;4.372;2022-07-01T10:47:02;20.40;99.90
23359;DHT22;11851;50.796;4.372;2022-07-01T10:52:06;20.70;99.90
23359;DHT22;11851;50.796;4.372;2022-07-01T10:59:55;20.90;99.90
23359;DHT22;11851;50.796;4.372;2022-07-01T11:02:30;21.00;99.90
23359;DHT22;11851;50.796;4.372;2022-07-01T11:05:04;21.00;99.90
23359;DHT22;11851;50.796;4.372;2022-07-01T11:07:33;20.90;99.90
23359;DHT22;11851;50.796;4.372;2022-07-01T11:10:00;20.90;99.90
23359;DHT22;11851;50.796;4.372;2022-07-01T11:12:28;20.90;99.90
23359;DHT22;11851;50.796;4.372;2022-07-01T11:14:55;21.10;99.90
23359;DHT22;11851;50.796;4.372;2022-07-01T11:17:21;21.30;99.90
23359;DHT22;11851;50.796;4.372;2022-07-01T11:19:55;21.30;99.20
23359;DHT22;11851;50.796;4.372;2022-07-01T11:22:27;21.30;99.60
23359;DHT22;11851;50.796;4.372;2022-07-01T11:25:04;21.20;98.80
23359;DHT22;11851;50.796;4.372;2022-07-01T11:27:30;21.10;99.10
23359;DHT22;11851;50.796;4.372;2022-07-01T11:30:01;20.90;98.60
23359;DHT22;11851;50.796;4.372;2022-07-01T11:32:28;21.00;99.00
23359;DHT22;11851;50.796;4.372;2022-07-01T11:34:55;21.00;98.30
23359;DHT22;11851;50.796;4.372;2022-07-01T11:37:21;20.90;95.90
23359;DHT22;11851;50.796;4.372;2022-07-01T11:40:10;21.10;96.20
23359;DHT22;11851;50.796;4.372;2022-07-01T11:42:36;21.20;95.10
23359;DHT22;11851;50.796;4.372;2022-07-01T11:45:03;21.40;94.70
23359;DHT22;11851;50.796;4.372;2022-07-01T11:47:29;21.40;94.30
23359;DHT22;11851;50.796;4.372;2022-07-01T11:49:56;21.40;93.60
23359;DHT22;11851;50.796;4.372;2022-07-01T11:52:22;21.60;93.60
23359;DHT22;11851;50.796;4.372;2022-07-01T11:54:50;21.70;94.20
23359;DHT22;11851;50.796;4.372;2022-07-01T11:57:24;21.80;93.40
23359;DHT22;11851;50.796;4.372;2022-07-01T11:59:52;21.90;92.90
23359;DHT22;11851;50.796;4.372;2022-07-01T12:02:19;21.90;92.50
23359;DHT22;11851;50.796;4.372;2022-07-01T12:04:47;21.90;93.10
23359;DHT22;11851;50.796;4.372;2022-07-01T12:07:14;21.80;92.80
23359;DHT22;11851;50.796;4.372;2022-07-01T12:09:40;21.70;92.90
23359;DHT22;11851;50.796;4.372;2022-07-01T12:12:06;21.70;92.50
23359;DHT22;11851;50.796;4.372;2022-07-01T12:14:34;21.90;92.40
23359;DHT22;11851;50.796;4.372;2022-07-01T12:17:04;21.90;92.40
23359;DHT22;11851;50.796;4.372;2022-07-01T12:19:37;22.00;92.60
23359;DHT22;11851;50.796;4.372;2022-07-01T12:22:09;22.10;92.30
23359;DHT22;11851;50.796;4.372;2022-07-01T12:24:35;22.20;92.30
23359;DHT22;11851;50.796;4.372;2022-07-01T12:27:06;22.10;91.70
23359;DHT22;11851;50.796;4.372;2022-07-01T12:29:48;22.00;91.40
23359;DHT22;11851;50.796;4.372;2022-07-01T12:32:25;22.10;91.60
23359;DHT22;11851;50.796;4.372;2022-07-01T12:34:57;22.20;91.20
23359;DHT22;11851;50.796;4.372;2022-07-01T12:37:29;22.10;90.90
23359;DHT22;11851;50.796;4.372;2022-07-01T12:44:58;22.40;91.40
23359;DHT22;11851;50.796;4.372;2022-07-01T12:50:15;22.40;89.80
23359;DHT22;11851;50.796;4.372;2022-07-01T12:52:44;22.60;90.20
23359;DHT22;11851;50.796;4.372;2022-07-01T12:55:21;22.70;89.60
23359;DHT22;11851;50.796;4.372;2022-07-01T12:57:49;22.70;89.70
23359;DHT22;11851;50.796;4.372;2022-07-01T13:00:16;22.70;89.50
23359;DHT22;11851;50.796;4.372;2022-07-01T13:02:42;22.70;88.90
23359;DHT22;11851;50.796;4.372;2022-07-01T13:05:08;22.80;89.10
23359;DHT22;11851;50.796;4.372;2022-07-01T13:07:34;22.90;89.00
23359;DHT22;11851;50.796;4.372;2022-07-01T13:10:00;23.00;88.70
23359;DHT22;11851;50.796;4.372;2022-07-01T13:12:26;23.00;89.30
23359;DHT22;11851;50.796;4.372;2022-07-01T13:14:51;23.00;87.70
23359;DHT22;11851;50.796;4.372;2022-07-01T13:17:17;23.10;87.90
23359;DHT22;11851;50.796;4.372;2022-07-01T13:19:43;23.30;86.80
23359;DHT22;11851;50.796;4.372;2022-07-01T13:22:09;23.40;85.70
23359;DHT22;11851;50.796;4.372;2022-07-01T13:24:34;23.40;86.50
23359;DHT22;11851;50.796;4.372;2022-07-01T13:27:00;23.50;86.20
23359;DHT22;11851;50.796;4.372;2022-07-01T13:29:26;23.70;86.20
23359;DHT22;11851;50.796;4.372;2022-07-01T13:31:51;23.90;85.40
23359;DHT22;11851;50.796;4.372;2022-07-01T13:34:17;24.00;84.60
23359;DHT22;11851;50.796;4.372;2022-07-01T13:36:42;24.00;85.30
23359;DHT22;11851;50.796;4.372;2022-07-01T13:39:08;24.10;82.30
23359;DHT22;11851;50.796;4.372;2022-07-01T13:41:34;24.00;81.90
23359;DHT22;11851;50.796;4.372;2022-07-01T13:44:01;23.90;82.70
23359;DHT22;11851;50.796;4.372;2022-07-01T13:46:27;23.50;84.00
23359;DHT22;11851;50.796;4.372;2022-07-01T13:48:52;23.40;85.60
23359;DHT22;11851;50.796;4.372;2022-07-01T13:51:18;23.20;85.20
23359;DHT22;11851;50.796;4.372;2022-07-01T13:53:44;23.20;86.30
23359;DHT22;11851;50.796;4.372;2022-07-01T13:56:09;23.30;86.90
23359;DHT22;11851;50.796;4.372;2022-07-01T13:58:35;23.30;87.10
23359;DHT22;11851;50.796;4.372;2022-07-01T14:01:00;23.40;86.60
23359;DHT22;11851;50.796;4.372;2022-07-01T14:03:26;23.20;86.40
23359;DHT22;11851;50.796;4.372;2022-07-01T14:05:52;23.10;85.10
23359;DHT22;11851;50.796;4.372;2022-07-01T14:08:18;23.00;86.80
23359;DHT22;11851;50.796;4.372;2022-07-01T14:10:44;22.80;86.50
23359;DHT22;11851;50.796;4.372;2022-07-01T14:13:11;22.80;86.80
23359;DHT22;11851;50.796;4.372;2022-07-01T14:15:37;22.80;86.60
23359;DHT22;11851;50.796;4.372;2022-07-01T14:18:03;23.00;86.10
23359;DHT22;11851;50.796;4.372;2022-07-01T14:20:29;23.20;84.80
23359;DHT22;11851;50.796;4.372;2022-07-01T14:22:55;23.30;83.20
23359;DHT22;11851;50.796;4.372;2022-07-01T14:25:21;23.40;82.60
23359;DHT22;11851;50.796;4.372;2022-07-01T14:27:47;23.50;82.50
23359;DHT22;11851;50.796;4.372;2022-07-01T14:30:15;23.70;83.50
23359;DHT22;11851;50.796;4.372;2022-07-01T14:32:41;23.90;83.30
23359;DHT22;11851;50.796;4.372;2022-07-01T14:35:07;24.00;83.00
23359;DHT22;11851;50.796;4.372;2022-07-01T14:37:33;24.10;81.60
23359;DHT22;11851;50.796;4.372;2022-07-01T14:39:59;24.30;82.60
23359;DHT22;11851;50.796;4.372;2022-07-01T14:42:25;24.30;80.50
23359;DHT22;11851;50.796;4.372;2022-07-01T14:44:52;24.20;81.10
23359;DHT22;11851;50.796;4.372;2022-07-01T14:47:18;24.00;81.60
23359;DHT22;11851;50.796;4.372;2022-07-01T14:49:43;23.90;82.80
23359;DHT22;11851;50.796;4.372;2022-07-01T14:52:10;23.60;83.60
23359;DHT22;11851;50.796;4.372;2022-07-01T14:54:37;23.50;84.60
23359;DHT22;11851;50.796;4.372;2022-07-01T14:57:04;23.50;86.10
23359;DHT22;11851;50.796;4.372;2022-07-01T14:59:30;23.40;86.40
23359;DHT22;11851;50.796;4.372;2022-07-01T15:01:56;23.50;88.20
23359;DHT22;11851;50.796;4.372;2022-07-01T15:04:26;23.40;89.30
23359;DHT22;11851;50.796;4.372;2022-07-01T15:06:52;23.50;89.90
23359;DHT22;11851;50.796;4.372;2022-07-01T15:09:18;23.70;89.70
23359;DHT22;11851;50.796;4.372;2022-07-01T15:11:48;24.70;89.00
23359;DHT22;11851;50.796;4.372;2022-07-01T15:14:14;26.50;84.50
23359;DHT22;11851;50.796;4.372;2022-07-01T15:16:40;27.40;82.80
23359;DHT22;11851;50.796;4.372;2022-07-01T15:19:06;27.70;80.20
23359;DHT22;11851;50.796;4.372;2022-07-01T15:21:31;27.40;78.40
23359;DHT22;11851;50.796;4.372;2022-07-01T15:23:57;28.00;76.70
23359;DHT22;11851;50.796;4.372;2022-07-01T15:26:23;29.30;74.80
23359;DHT22;11851;50.796;4.372;2022-07-01T15:28:49;29.10;72.50
23359;DHT22;11851;50.796;4.372;2022-07-01T15:31:15;29.00;73.40
23359;DHT22;11851;50.796;4.372;2022-07-01T15:33:42;29.40;72.50
23359;DHT22;11851;50.796;4.372;2022-07-01T15:36:08;29.70;71.50
23359;DHT22;11851;50.796;4.372;2022-07-01T15:38:34;29.90;71.20
23359;DHT22;11851;50.796;4.372;2022-07-01T15:41:00;30.10;71.20
23359;DHT22;11851;50.796;4.372;2022-07-01T15:43:27;29.90;70.50
23359;DHT22;11851;50.796;4.372;2022-07-01T15:45:54;28.90;70.60
23359;DHT22;11851;50.796;4.372;2022-07-01T15:48:20;28.20;73.10
23359;DHT22;11851;50.796;4.372;2022-07-01T15:50:45;28.20;74.30
23359;DHT22;11851;50.796;4.372;2022-07-01T15:53:13;29.60;72.80
23359;DHT22;11851;50.796;4.372;2022-07-01T15:55:40;30.80;68.50
23359;DHT22;11851;50.796;4.372;2022-07-01T15:58:09;31.40;67.30
23359;DHT22;11851;50.796;4.372;2022-07-01T16:00:35;30.80;66.70
23359;DHT22;11851;50.796;4.372;2022-07-01T16:03:01;30.00;66.90
23359;DHT22;11851;50.796;4.372;2022-07-01T16:05:27;30.40;67.60
23359;DHT22;11851;50.796;4.372;2022-07-01T16:08:01;30.70;66.70